Time;durP1;ratioP1;P1;durP2;ratioP2;P2;SDS_P1;SDS_P2;PMS_P1;PMS_P2;Temp;Humidity;BMP_temperature;BMP_pressure;BME280_temperature;BME280_humidity;BME280_pressure;Samples;Min_cycle;Max_cycle;Signal;HPM_P1;HPM_P2
2023/12/06 00:00:30;;;;;;;12.23;11.93;;;2.10;99.90;;;;;;5089067;28;21023;-71
2023/12/06 00:02:58;;;;;;;12.80;12.50;;;2.10;99.90;;;;;;5079377;28;20961;-72
2023/12/06 00:05:24;;;;;;;12.47;12.17;;;2.10;99.90;;;;;;5087232;28;20497;-71
2023/12/06 00:07:52;;;;;;;12.03;11.73;;;2.20;99.90;;;;;;5082713;28;20487;-71
2023/12/06 00:10:20;;;;;;;11.93;11.63;;;2.10;99.90;;;;;;5073995;28;20486;-72
2023/12/06 00:12:46;;;;;;;12.03;11.73;;;2.10;99.90;;;;;;5070479;28;20466;-73
2023/12/06 00:15:15;;;;;;;12.60;12.30;;;2.00;99.90;;;;;;5084182;28;20455;-71
2023/12/06 00:17:41;;;;;;;12.70;12.40;;;2.00;99.90;;;;;;5089422;28;20952;-72
2023/12/06 00:20:09;;;;;;;12.40;12.10;;;2.00;99.90;;;;;;5079043;28;21294;-74
2023/12/06 00:22:36;;;;;;;12.23;11.93;;;2.00;99.90;;;;;;5086278;28;20459;-71
2023/12/06 00:25:05;;;;;;;12.93;12.63;;;1.90;99.90;;;;;;5070099;28;20959;-72
2023/12/06 00:27:34;;;;;;;12.70;12.40;;;2.00;99.90;;;;;;5085110;28;20569;-72
2023/12/06 00:30:02;;;;;;;12.60;12.30;;;2.00;99.90;;;;;;5079847;28;20447;-71
2023/12/06 00:32:30;;;;;;;12.30;12.00;;;2.10;99.90;;;;;;5084575;28;20443;-73
2023/12/06 00:34:57;;;;;;;12.50;12.20;;;2.00;99.90;;;;;;5088818;28;20827;-71
2023/12/06 00:37:24;;;;;;;12.50;12.20;;;2.00;99.90;;;;;;5076862;28;20467;-74
2023/12/06 00:39:51;;;;;;;12.13;11.83;;;1.90;99.90;;;;;;5083126;28;20973;-70
2023/12/06 00:42:17;;;;;;;11.87;11.57;;;2.00;99.90;;;;;;5083696;28;20462;-73
2023/12/06 00:44:46;;;;;;;12.50;12.20;;;2.00;99.90;;;;;;5088499;28;20885;-70
2023/12/06 00:47:12;;;;;;;12.60;12.30;;;2.00;99.90;;;;;;5088357;28;20474;-70
2023/12/06 00:49:40;;;;;;;12.83;12.53;;;1.90;99.90;;;;;;5077276;28;20459;-70
2023/12/06 00:52:07;;;;;;;13.00;12.70;;;1.90;99.90;;;;;;5077039;28;20458;-73
2023/12/06 00:54:33;;;;;;;12.80;12.50;;;1.90;99.90;;;;;;5081751;28;20465;-72
2023/12/06 00:57:00;;;;;;;12.70;12.40;;;1.90;99.90;;;;;;5085963;28;21237;-71
2023/12/06 00:59:27;;;;;;;12.70;12.40;;;1.90;99.90;;;;;;5078251;28;20467;-73
2023/12/06 01:01:55;;;;;;;12.40;12.10;;;1.90;99.90;;;;;;5095875;28;21269;-72
2023/12/06 01:04:22;;;;;;;12.60;12.30;;;1.90;99.90;;;;;;5083720;28;20519;-74
2023/12/06 01:06:49;;;;;;;13.10;12.70;;;1.90;99.90;;;;;;5088599;28;20462;-70
2023/12/06 01:09:16;;;;;;;12.43;12.13;;;1.90;99.90;;;;;;5079924;28;20825;-74
2023/12/06 01:11:43;;;;;;;12.17;11.87;;;1.80;99.90;;;;;;5088531;28;20511;-73
2023/12/06 01:14:10;;;;;;;12.50;12.20;;;1.80;99.90;;;;;;5075058;28;21019;-73
2023/12/06 01:16:37;;;;;;;12.13;11.83;;;1.80;99.90;;;;;;5087129;28;20454;-71
2023/12/06 01:19:05;;;;;;;11.90;11.60;;;1.70;99.90;;;;;;5076701;28;20978;-74
2023/12/06 01:21:32;;;;;;;11.90;11.60;;;1.80;99.90;;;;;;5076228;28;20458;-71
2023/12/06 01:23:58;;;;;;;11.60;11.30;;;1.70;99.90;;;;;;5084724;28;20486;-73
2023/12/06 01:26:25;;;;;;;11.70;11.40;;;1.70;99.90;;;;;;5080599;28;20837;-69
2023/12/06 01:28:53;;;;;;;11.60;11.30;;;1.70;99.90;;;;;;5077798;28;20522;-73
2023/12/06 01:31:20;;;;;;;11.93;11.63;;;1.70;99.90;;;;;;5091200;28;20458;-71
2023/12/06 01:33:46;;;;;;;11.57;11.27;;;1.70;99.90;;;;;;5077639;28;20454;-71
2023/12/06 01:36:15;;;;;;;12.27;11.97;;;1.70;99.90;;;;;;5083836;28;20877;-70
2023/12/06 01:38:42;;;;;;;11.67;11.37;;;1.70;99.90;;;;;;5084364;28;20462;-72
2023/12/06 01:41:11;;;;;;;12.20;11.90;;;1.70;99.90;;;;;;5091869;28;20459;-72
2023/12/06 01:43:42;;;;;;;11.97;11.67;;;1.70;99.90;;;;;;5086054;28;20557;-71
2023/12/06 01:46:09;;;;;;;12.20;11.90;;;1.70;99.90;;;;;;5077593;28;20474;-72
2023/12/06 01:48:37;;;;;;;12.73;12.33;;;1.60;99.90;;;;;;5087550;28;20841;-71
2023/12/06 01:51:06;;;;;;;13.10;12.70;;;1.70;99.90;;;;;;5084494;28;20550;-70
2023/12/06 01:53:34;;;;;;;12.50;12.20;;;1.70;99.90;;;;;;5092198;28;20528;-73
2023/12/06 01:56:02;;;;;;;13.20;12.80;;;1.70;99.90;;;;;;5090376;28;20519;-70
2023/12/06 01:58:30;;;;;;;12.80;12.40;;;1.70;99.90;;;;;;5075964;28;20494;-73
2023/12/06 02:00:57;;;;;;;13.50;13.10;;;1.70;99.90;;;;;;5082528;28;20485;-71
2023/12/06 02:03:24;;;;;;;13.07;12.67;;;1.80;99.90;;;;;;5089843;28;20465;-73
2023/12/06 02:05:53;;;;;;;12.83;12.43;;;1.80;99.90;;;;;;5079782;28;20463;-71
2023/12/06 02:08:20;;;;;;;13.30;12.90;;;1.80;99.90;;;;;;5082055;28;20505;-73
2023/12/06 02:10:49;;;;;;;12.90;12.50;;;1.80;99.90;;;;;;5077767;28;20864;-71
2023/12/06 02:13:17;;;;;;;13.00;12.60;;;1.80;99.90;;;;;;5096209;28;20453;-70
2023/12/06 02:15:44;;;;;;;12.47;12.17;;;1.80;99.90;;;;;;5089495;28;20454;-70
2023/12/06 02:18:11;;;;;;;13.07;12.67;;;1.80;99.90;;;;;;5084261;28;20471;-71
2023/12/06 02:20:38;;;;;;;12.03;11.73;;;1.80;99.90;;;;;;5091126;28;20864;-72
2023/12/06 02:23:07;;;;;;;12.70;12.30;;;1.70;99.90;;;;;;5091817;28;20881;-73
2023/12/06 02:25:36;;;;;;;12.37;12.07;;;1.70;99.90;;;;;;5074941;28;20499;-72
2023/12/06 02:28:03;;;;;;;11.93;11.63;;;1.80;99.90;;;;;;5079344;28;20482;-69
2023/12/06 02:30:30;;;;;;;12.70;12.30;;;1.70;99.90;;;;;;5087750;28;20494;-74
2023/12/06 02:32:57;;;;;;;12.17;11.87;;;1.80;99.90;;;;;;5098022;28;20451;-70
2023/12/06 02:35:29;;;;;;;12.57;12.20;;;1.80;99.90;;;;;;5078398;28;20454;-70
2023/12/06 02:37:58;;;;;;;12.23;11.93;;;1.80;99.90;;;;;;5082994;28;20747;-72
2023/12/06 02:40:27;;;;;;;11.90;11.60;;;1.80;99.90;;;;;;5091346;28;20462;-71
2023/12/06 02:42:57;;;;;;;12.30;12.00;;;1.80;99.90;;;;;;5094140;28;20512;-70
2023/12/06 02:45:23;;;;;;;11.90;11.60;;;1.80;99.90;;;;;;5075994;28;20587;-72
2023/12/06 02:47:50;;;;;;;11.70;11.40;;;1.80;99.90;;;;;;5088863;28;20489;-72
2023/12/06 02:50:17;;;;;;;11.40;11.10;;;1.70;99.90;;;;;;5091395;28;20490;-71
2023/12/06 02:52:44;;;;;;;12.10;11.80;;;1.70;99.90;;;;;;5077554;28;20462;-72
2023/12/06 02:55:13;;;;;;;13.00;12.60;;;1.70;99.90;;;;;;5079502;28;20463;-71
2023/12/06 02:57:40;;;;;;;11.67;11.37;;;1.70;99.90;;;;;;5076709;28;20473;-70
2023/12/06 03:00:10;;;;;;;12.30;12.00;;;1.70;99.90;;;;;;5091483;28;20450;-71
2023/12/06 03:02:37;;;;;;;12.07;11.77;;;1.70;99.90;;;;;;5090791;28;20906;-72
2023/12/06 03:05:05;;;;;;;12.17;11.87;;;1.70;99.90;;;;;;5079477;28;20604;-72
2023/12/06 03:07:32;;;;;;;11.73;11.43;;;1.70;99.90;;;;;;5079764;28;20466;-71
2023/12/06 03:09:58;;;;;;;12.30;12.00;;;1.80;99.90;;;;;;5079664;28;20858;-73
2023/12/06 03:12:25;;;;;;;11.50;11.20;;;1.80;99.90;;;;;;5078947;28;20888;-73
2023/12/06 03:14:52;;;;;;;11.60;11.30;;;1.80;99.90;;;;;;5084146;28;20937;-70
2023/12/06 03:17:21;;;;;;;12.00;11.70;;;1.80;99.90;;;;;;5077287;28;20470;-73
2023/12/06 03:19:47;;;;;;;11.80;11.50;;;1.80;99.90;;;;;;5091068;28;20458;-70
2023/12/06 03:22:14;;;;;;;11.83;11.53;;;1.90;99.90;;;;;;5085290;28;20461;-73
2023/12/06 03:24:41;;;;;;;12.13;11.83;;;1.90;99.90;;;;;;5082584;28;20530;-73
2023/12/06 03:27:09;;;;;;;12.13;11.83;;;1.90;99.90;;;;;;5072622;28;20455;-72
2023/12/06 03:29:36;;;;;;;12.43;12.13;;;1.90;99.90;;;;;;5085876;28;20493;-72
2023/12/06 03:32:03;;;;;;;12.50;12.20;;;1.90;99.90;;;;;;5094467;28;20454;-73
2023/12/06 03:34:31;;;;;;;12.60;12.30;;;2.00;99.90;;;;;;5083853;28;20472;-72
2023/12/06 03:36:59;;;;;;;12.27;11.97;;;2.00;99.90;;;;;;5074642;28;20495;-72
2023/12/06 03:39:26;;;;;;;12.53;12.23;;;2.00;99.90;;;;;;5084126;28;20455;-72
2023/12/06 03:41:53;;;;;;;12.40;12.10;;;2.00;99.90;;;;;;5099667;28;20540;-70
2023/12/06 03:44:20;;;;;;;12.27;11.97;;;2.00;99.90;;;;;;5077365;28;20501;-70
2023/12/06 03:46:46;;;;;;;12.70;12.40;;;2.00;99.90;;;;;;5076449;28;20460;-73
2023/12/06 03:49:13;;;;;;;12.77;12.47;;;2.00;99.90;;;;;;5090562;28;20490;-72
2023/12/06 03:51:42;;;;;;;12.57;12.27;;;2.10;99.90;;;;;;5088993;28;20469;-74
2023/12/06 03:54:09;;;;;;;12.47;12.17;;;2.10;99.90;;;;;;5079825;28;20778;-71
2023/12/06 03:56:35;;;;;;;12.77;12.47;;;2.10;99.90;;;;;;5083909;28;20481;-72
2023/12/06 03:59:04;;;;;;;13.20;12.80;;;2.10;99.90;;;;;;5081861;28;20463;-71
2023/12/06 04:01:30;;;;;;;13.00;12.60;;;2.10;99.90;;;;;;5089633;28;20858;-71
2023/12/06 04:03:57;;;;;;;12.80;12.43;;;2.20;99.90;;;;;;5077636;28;20464;-71
2023/12/06 04:06:24;;;;;;;13.33;12.93;;;2.20;99.90;;;;;;5089711;28;20733;-72
2023/12/06 04:08:53;;;;;;;13.57;13.17;;;2.20;99.90;;;;;;5077601;28;20471;-69
2023/12/06 04:11:20;;;;;;;13.40;13.00;;;2.20;99.90;;;;;;5089539;28;20559;-70
2023/12/06 04:13:47;;;;;;;13.00;12.60;;;2.20;99.90;;;;;;5089661;28;20493;-73
2023/12/06 04:16:14;;;;;;;13.30;12.90;;;2.20;99.90;;;;;;5080004;28;20483;-72
2023/12/06 04:18:41;;;;;;;13.30;12.90;;;2.30;99.90;;;;;;5088267;28;20469;-71
2023/12/06 04:21:08;;;;;;;13.33;12.93;;;2.30;99.90;;;;;;5082254;28;20484;-71
2023/12/06 04:23:35;;;;;;;13.60;13.20;;;2.30;99.90;;;;;;5081760;28;20467;-73
2023/12/06 04:26:04;;;;;;;13.40;13.00;;;2.30;99.90;;;;;;5089178;28;20462;-71
2023/12/06 04:28:31;;;;;;;12.87;12.47;;;2.30;99.90;;;;;;5078469;28;20513;-72
2023/12/06 04:30:58;;;;;;;12.50;12.20;;;2.20;99.90;;;;;;5078547;28;22265;-73
2023/12/06 04:33:25;;;;;;;12.70;12.37;;;2.20;99.90;;;;;;5085376;28;20461;-72
2023/12/06 04:35:52;;;;;;;12.37;12.07;;;2.20;99.90;;;;;;5086252;28;20558;-72
2023/12/06 04:38:19;;;;;;;12.90;12.50;;;2.20;99.90;;;;;;5077364;28;20891;-73
2023/12/06 04:40:47;;;;;;;12.50;12.20;;;2.30;99.90;;;;;;5089865;28;20454;-73
2023/12/06 04:43:15;;;;;;;12.03;11.73;;;2.20;99.90;;;;;;5082380;28;20832;-73
2023/12/06 04:45:42;;;;;;;12.07;11.77;;;2.30;99.90;;;;;;5076205;28;20494;-73
2023/12/06 04:48:09;;;;;;;11.93;11.63;;;2.20;99.90;;;;;;5087240;28;20485;-72
2023/12/06 04:50:37;;;;;;;12.00;11.70;;;2.30;99.90;;;;;;5095691;28;20466;-71
2023/12/06 04:53:04;;;;;;;12.60;12.30;;;2.30;99.90;;;;;;5084929;28;20454;-72
2023/12/06 04:55:31;;;;;;;12.90;12.50;;;2.30;99.90;;;;;;5079248;28;20467;-70
2023/12/06 04:57:58;;;;;;;12.63;12.23;;;2.40;99.90;;;;;;5075072;28;20525;-70
2023/12/06 05:00:27;;;;;;;13.27;12.87;;;2.40;99.90;;;;;;5101159;28;20497;-70
2023/12/06 05:02:54;;;;;;;13.50;13.10;;;2.40;99.90;;;;;;5083978;28;20828;-73
2023/12/06 05:05:21;;;;;;;13.50;13.10;;;2.40;99.90;;;;;;5078279;28;20478;-72
2023/12/06 05:07:48;;;;;;;13.40;13.00;;;2.40;99.90;;;;;;5075344;28;20458;-71
2023/12/06 05:10:15;;;;;;;12.87;12.47;;;2.40;99.90;;;;;;5072821;28;20826;-70
2023/12/06 05:12:41;;;;;;;12.97;12.57;;;2.40;99.90;;;;;;5076589;28;20458;-73
2023/12/06 05:15:10;;;;;;;13.47;13.07;;;2.40;99.90;;;;;;5078373;28;20797;-71
2023/12/06 05:17:38;;;;;;;12.83;12.47;;;2.50;99.90;;;;;;5072697;28;20462;-70
2023/12/06 05:20:07;;;;;;;13.50;13.10;;;2.40;99.90;;;;;;5078498;28;20455;-72
2023/12/06 05:22:34;;;;;;;13.20;12.80;;;2.40;99.90;;;;;;5086422;28;21014;-71
2023/12/06 05:25:03;;;;;;;13.40;13.00;;;2.40;99.90;;;;;;5074346;28;20590;-72
2023/12/06 05:27:30;;;;;;;13.50;13.10;;;2.50;99.90;;;;;;5073698;28;20473;-71
2023/12/06 05:29:57;;;;;;;13.43;13.03;;;2.50;99.90;;;;;;5079816;28;20490;-72
2023/12/06 05:32:24;;;;;;;13.33;12.93;;;2.50;99.90;;;;;;5096098;28;20451;-71
2023/12/06 05:34:52;;;;;;;13.60;13.20;;;2.60;99.90;;;;;;5093613;28;20469;-71
2023/12/06 05:37:19;;;;;;;13.60;13.20;;;2.50;99.90;;;;;;5080928;28;20881;-71
2023/12/06 05:39:46;;;;;;;14.33;13.83;;;2.60;99.90;;;;;;5082827;28;20562;-70
2023/12/06 05:42:13;;;;;;;14.20;13.70;;;2.60;99.90;;;;;;5073863;28;20459;-71
2023/12/06 05:44:40;;;;;;;13.73;13.33;;;2.70;99.90;;;;;;5073532;28;20467;-72
2023/12/06 05:47:07;;;;;;;13.83;13.43;;;2.60;99.90;;;;;;5087839;28;20886;-71
2023/12/06 05:49:34;;;;;;;14.20;13.70;;;2.70;99.90;;;;;;5073521;28;20498;-72
2023/12/06 05:52:02;;;;;;;13.80;13.40;;;2.70;99.90;;;;;;5079455;28;20828;-71
2023/12/06 05:54:29;;;;;;;13.60;13.20;;;2.70;99.90;;;;;;5080119;28;20804;-71
2023/12/06 05:56:56;;;;;;;14.17;13.67;;;2.70;99.90;;;;;;5072461;28;20827;-70
2023/12/06 05:59:23;;;;;;;14.43;13.93;;;2.70;99.90;;;;;;5074473;28;20451;-70
2023/12/06 06:01:49;;;;;;;13.40;13.00;;;2.80;99.90;;;;;;5086394;28;20868;-71
2023/12/06 06:04:16;;;;;;;13.50;13.10;;;2.70;99.90;;;;;;5077729;28;20459;-71
2023/12/06 06:06:43;;;;;;;13.60;13.20;;;2.70;99.90;;;;;;5082536;28;20502;-73
2023/12/06 06:09:13;;;;;;;13.70;13.30;;;2.70;99.90;;;;;;5071252;28;20491;-73
2023/12/06 06:11:39;;;;;;;13.93;13.53;;;2.80;99.90;;;;;;5074622;28;20980;-70
2023/12/06 06:14:06;;;;;;;14.10;13.60;;;2.80;99.90;;;;;;5081143;28;20941;-73
2023/12/06 06:16:33;;;;;;;13.63;13.23;;;2.80;99.90;;;;;;5088021;28;20553;-70
2023/12/06 06:19:00;;;;;;;13.90;13.50;;;2.80;99.90;;;;;;5075345;28;20471;-73
2023/12/06 06:21:27;;;;;;;14.57;14.07;;;2.70;99.90;;;;;;5072702;28;20471;-72
2023/12/06 06:23:54;;;;;;;14.30;13.80;;;2.80;99.90;;;;;;5081211;28;20498;-71
2023/12/06 06:26:23;;;;;;;14.70;14.20;;;2.80;99.90;;;;;;5076525;28;20466;-73
2023/12/06 06:28:49;;;;;;;14.43;13.93;;;2.90;99.90;;;;;;5083893;28;20570;-72
2023/12/06 06:31:16;;;;;;;14.37;13.87;;;2.90;99.90;;;;;;5072063;28;20966;-71
2023/12/06 06:33:43;;;;;;;13.93;13.50;;;2.90;99.90;;;;;;5086269;28;20828;-71
2023/12/06 06:36:11;;;;;;;14.90;14.40;;;2.90;99.90;;;;;;5086262;28;20965;-71
2023/12/06 06:38:38;;;;;;;14.43;13.93;;;2.90;99.90;;;;;;5073959;28;20578;-70
2023/12/06 06:41:04;;;;;;;15.00;14.50;;;2.90;99.90;;;;;;5083377;28;20462;-71
2023/12/06 06:43:33;;;;;;;15.30;14.80;;;2.90;99.90;;;;;;5084645;28;20454;-71
2023/12/06 06:46:00;;;;;;;14.97;14.47;;;3.00;99.90;;;;;;5083157;28;20460;-71
2023/12/06 06:48:27;;;;;;;14.57;14.07;;;3.00;99.90;;;;;;5074558;28;20555;-70
2023/12/06 06:50:54;;;;;;;14.30;13.80;;;3.00;99.90;;;;;;5084515;28;20462;-71
2023/12/06 06:53:21;;;;;;;14.90;14.40;;;3.10;99.90;;;;;;5076772;28;20460;-70
2023/12/06 06:55:48;;;;;;;15.60;15.00;;;3.00;99.90;;;;;;5082976;28;20475;-71
2023/12/06 06:58:15;;;;;;;15.00;14.50;;;3.00;99.90;;;;;;5079036;28;20513;-72
2023/12/06 07:00:43;;;;;;;15.30;14.80;;;3.10;99.90;;;;;;5080959;28;20459;-72
2023/12/06 07:03:11;;;;;;;14.93;14.43;;;3.10;99.90;;;;;;5089978;28;20456;-71
2023/12/06 07:05:38;;;;;;;14.90;14.40;;;3.10;99.90;;;;;;5082776;28;20467;-68
2023/12/06 07:08:06;;;;;;;14.63;14.13;;;3.10;99.90;;;;;;5081276;28;20778;-72
2023/12/06 07:10:34;;;;;;;14.57;14.07;;;3.10;99.90;;;;;;5089763;28;20502;-69
2023/12/06 07:13:01;;;;;;;14.40;13.93;;;3.20;99.90;;;;;;5073589;28;20850;-71
2023/12/06 07:15:28;;;;;;;14.40;13.93;;;3.20;99.90;;;;;;5088479;28;20818;-68
2023/12/06 07:17:56;;;;;;;13.43;13.03;;;3.20;99.90;;;;;;5074720;28;21251;-70
2023/12/06 07:20:24;;;;;;;14.10;13.70;;;3.10;99.90;;;;;;5073869;28;20483;-71
2023/12/06 07:22:51;;;;;;;14.07;13.67;;;3.10;99.90;;;;;;5077194;28;20537;-70
2023/12/06 07:25:18;;;;;;;13.90;13.50;;;3.20;99.90;;;;;;5070971;28;20495;-70
2023/12/06 07:27:45;;;;;;;14.30;13.90;;;3.20;99.90;;;;;;5072809;28;20970;-71
2023/12/06 07:30:14;;;;;;;14.10;13.70;;;3.20;99.90;;;;;;5075655;28;20544;-72
2023/12/06 07:32:40;;;;;;;13.57;13.17;;;3.20;99.90;;;;;;5075292;28;20477;-70
2023/12/06 07:35:10;;;;;;;13.80;13.40;;;3.20;99.90;;;;;;5075141;28;20462;-72
2023/12/06 07:37:37;;;;;;;14.57;14.17;;;3.20;99.90;;;;;;5074188;28;20469;-69
2023/12/06 07:40:07;;;;;;;14.50;14.07;;;3.30;99.90;;;;;;5073757;28;20470;-70
2023/12/06 07:42:34;;;;;;;13.60;13.20;;;3.30;99.90;;;;;;5072376;28;20475;-71
2023/12/06 07:45:01;;;;;;;13.57;13.17;;;3.30;99.90;;;;;;5075922;28;20749;-69
2023/12/06 07:47:28;;;;;;;13.40;13.00;;;3.30;99.90;;;;;;5074569;28;20470;-69
2023/12/06 07:49:55;;;;;;;14.30;13.90;;;3.30;99.90;;;;;;5076700;28;20849;-69
2023/12/06 07:52:24;;;;;;;13.63;13.23;;;3.30;99.90;;;;;;5073337;28;20494;-70
2023/12/06 07:54:51;;;;;;;13.77;13.37;;;3.40;99.90;;;;;;5069243;28;20471;-70
2023/12/06 07:57:18;;;;;;;13.37;12.97;;;3.30;99.90;;;;;;5074528;28;20938;-70
2023/12/06 07:59:47;;;;;;;13.70;13.30;;;3.40;99.90;;;;;;5076319;28;20458;-71
2023/12/06 08:02:14;;;;;;;14.00;13.60;;;3.40;99.90;;;;;;5077476;28;20456;-72
2023/12/06 08:04:41;;;;;;;14.00;13.60;;;3.40;99.90;;;;;;5077062;28;20464;-72
2023/12/06 08:07:09;;;;;;;13.63;13.23;;;3.40;99.90;;;;;;5071079;28;22629;-71
2023/12/06 08:09:39;;;;;;;12.60;12.30;;;3.40;99.90;;;;;;5075388;28;20490;-73
2023/12/06 08:12:07;;;;;;;12.77;12.47;;;3.40;99.90;;;;;;5070988;28;20543;-71
2023/12/06 08:14:34;;;;;;;13.20;12.80;;;3.40;99.90;;;;;;5073770;28;21115;-73
2023/12/06 08:17:01;;;;;;;13.23;12.83;;;3.40;99.90;;;;;;5074869;28;20804;-73
2023/12/06 08:19:28;;;;;;;13.70;13.30;;;3.50;99.90;;;;;;5075824;28;20816;-73
2023/12/06 08:21:55;;;;;;;13.17;12.77;;;3.60;99.90;;;;;;5076554;28;20509;-71
2023/12/06 08:24:22;;;;;;;13.47;13.07;;;3.60;99.90;;;;;;5074388;28;20486;-70
2023/12/06 08:26:51;;;;;;;12.50;12.20;;;3.60;99.90;;;;;;5067769;28;20467;-71
2023/12/06 08:29:18;;;;;;;12.57;12.27;;;3.70;99.90;;;;;;5074803;28;20470;-70
2023/12/06 08:31:46;;;;;;;12.70;12.40;;;3.60;99.90;;;;;;5076414;28;20473;-68
2023/12/06 08:34:12;;;;;;;12.97;12.57;;;3.70;99.90;;;;;;5076642;28;20569;-70
2023/12/06 08:36:39;;;;;;;12.57;12.27;;;3.70;99.90;;;;;;5073885;28;20462;-71
2023/12/06 08:39:06;;;;;;;12.33;12.03;;;3.70;99.90;;;;;;5074899;28;20995;-71
2023/12/06 08:41:33;;;;;;;12.93;12.53;;;3.70;99.90;;;;;;5069116;28;20478;-73
2023/12/06 08:44:01;;;;;;;12.30;12.00;;;3.70;99.90;;;;;;5070815;28;20509;-72
2023/12/06 08:46:28;;;;;;;13.00;12.60;;;3.70;99.90;;;;;;5078159;28;20467;-72
2023/12/06 08:48:55;;;;;;;12.37;12.07;;;3.70;99.90;;;;;;5076689;28;20464;-72
2023/12/06 08:51:22;;;;;;;12.30;12.00;;;3.70;99.90;;;;;;5074812;28;20534;-69
2023/12/06 08:53:49;;;;;;;12.03;11.73;;;3.70;99.90;;;;;;5077141;28;20459;-72
2023/12/06 08:56:15;;;;;;;12.30;12.00;;;3.70;99.90;;;;;;5072721;28;20804;-71
2023/12/06 08:58:42;;;;;;;12.60;12.30;;;3.70;99.90;;;;;;5076283;28;20471;-71
2023/12/06 09:01:11;;;;;;;12.40;12.10;;;3.80;99.90;;;;;;5071844;28;20809;-71
2023/12/06 09:03:38;;;;;;;12.90;12.50;;;3.80;99.90;;;;;;5076348;28;20462;-71
2023/12/06 09:06:05;;;;;;;12.00;11.70;;;3.90;99.90;;;;;;5075883;28;20826;-69
2023/12/06 09:08:33;;;;;;;12.60;12.30;;;3.90;99.90;;;;;;5075586;28;20532;-70
2023/12/06 09:11:00;;;;;;;11.73;11.43;;;3.90;99.90;;;;;;5070258;28;20530;-69
2023/12/06 09:13:27;;;;;;;11.07;10.83;;;3.90;99.90;;;;;;5076093;28;20477;-71
2023/12/06 09:15:55;;;;;;;11.13;10.83;;;3.90;99.90;;;;;;5074432;28;20551;-72
2023/12/06 09:18:23;;;;;;;10.70;10.50;;;3.90;99.90;;;;;;5074455;28;20467;-70
2023/12/06 09:20:52;;;;;;;11.03;10.73;;;3.80;99.90;;;;;;5069426;28;20556;-70
2023/12/06 09:23:18;;;;;;;10.57;10.37;;;3.80;99.90;;;;;;5075724;28;20503;-71
2023/12/06 09:25:46;;;;;;;11.23;10.93;;;3.90;99.90;;;;;;5072372;28;20496;-71
2023/12/06 09:28:13;;;;;;;11.20;10.90;;;3.90;99.90;;;;;;5075193;28;20881;-70
2023/12/06 09:30:40;;;;;;;10.90;10.67;;;4.00;99.90;;;;;;5072521;28;21025;-69
2023/12/06 09:33:07;;;;;;;11.53;11.23;;;4.10;99.90;;;;;;5070630;28;20977;-71
2023/12/06 09:35:35;;;;;;;11.50;11.20;;;4.10;99.90;;;;;;5073119;28;20828;-70
2023/12/06 09:38:02;;;;;;;11.40;11.10;;;4.10;99.90;;;;;;5072368;28;20474;-70
2023/12/06 09:40:29;;;;;;;11.37;11.07;;;4.20;99.90;;;;;;5072678;28;20462;-70
2023/12/06 09:43:02;;;;;;;10.60;10.40;;;4.20;99.90;;;;;;5076257;28;20458;-71
2023/12/06 09:45:30;;;;;;;10.27;10.07;;;4.30;99.90;;;;;;5075637;28;20540;-71
2023/12/06 09:47:57;;;;;;;10.47;10.27;;;4.30;99.90;;;;;;5076924;28;20468;-71
2023/12/06 09:50:25;;;;;;;10.90;10.60;;;4.30;99.90;;;;;;5069456;28;20519;-71
2023/12/06 09:52:54;;;;;;;9.67;9.47;;;4.30;99.90;;;;;;5069656;28;22210;-70
2023/12/06 09:55:23;;;;;;;10.10;9.90;;;4.40;99.90;;;;;;5075426;28;20461;-69
2023/12/06 09:57:51;;;;;;;9.80;9.60;;;4.50;99.90;;;;;;5075426;28;21123;-69
2023/12/06 10:00:19;;;;;;;8.80;8.60;;;4.50;99.90;;;;;;5074073;28;20466;-70
2023/12/06 10:02:53;;;;;;;9.60;9.40;;;4.60;99.90;;;;;;5070351;28;20466;-70
2023/12/06 10:05:20;;;;;;;9.10;8.90;;;4.60;99.90;;;;;;5074136;28;20465;-70
2023/12/06 10:07:48;;;;;;;8.93;8.73;;;4.60;99.90;;;;;;5077980;28;20483;-68
2023/12/06 10:10:17;;;;;;;9.07;8.87;;;4.70;99.90;;;;;;5074452;28;20614;-69
2023/12/06 10:12:49;;;;;;;10.07;9.87;;;4.70;99.90;;;;;;5081282;28;20484;-70
2023/12/06 10:15:16;;;;;;;9.43;9.23;;;4.80;99.90;;;;;;5076651;28;20463;-70
2023/12/06 10:17:43;;;;;;;10.10;9.90;;;4.80;99.90;;;;;;5078942;28;20458;-71
2023/12/06 10:20:10;;;;;;;9.47;9.27;;;4.90;99.90;;;;;;5077242;28;20459;-72
2023/12/06 10:22:38;;;;;;;8.77;8.60;;;4.90;99.90;;;;;;5076865;28;20962;-70
2023/12/06 10:25:07;;;;;;;9.70;9.50;;;4.90;99.90;;;;;;5073157;28;20595;-71
2023/12/06 10:27:36;;;;;;;9.87;9.67;;;5.10;99.90;;;;;;5076802;28;20462;-70
2023/12/06 10:30:03;;;;;;;9.30;9.10;;;5.00;99.90;;;;;;5077550;28;20502;-69
2023/12/06 10:32:32;;;;;;;9.17;8.97;;;5.10;99.90;;;;;;5078019;28;20464;-71
2023/12/06 10:35:00;;;;;;;9.20;9.00;;;5.10;99.90;;;;;;5074730;28;20471;-70
2023/12/06 10:37:28;;;;;;;9.53;9.33;;;5.20;99.90;;;;;;5074304;28;20468;-69
2023/12/06 10:40:00;;;;;;;8.90;8.70;;;5.10;99.90;;;;;;5076946;28;20465;-71
2023/12/06 10:42:33;;;;;;;9.77;9.57;;;5.20;99.90;;;;;;5077112;28;20558;-72
2023/12/06 10:45:05;;;;;;;9.07;8.87;;;5.20;99.90;;;;;;5074723;28;20895;-72
2023/12/06 10:47:33;;;;;;;9.70;9.50;;;5.10;99.90;;;;;;5076321;28;20498;-72
2023/12/06 10:50:03;;;;;;;9.80;9.60;;;5.30;99.90;;;;;;5077168;28;20830;-72
2023/12/06 10:52:31;;;;;;;9.70;9.50;;;5.40;99.90;;;;;;5075599;28;20919;-72
2023/12/06 10:55:00;;;;;;;9.90;9.70;;;5.50;99.90;;;;;;5077337;28;20461;-70
2023/12/06 10:57:28;;;;;;;9.90;9.70;;;5.50;99.90;;;;;;5077085;28;20466;-70
2023/12/06 10:59:57;;;;;;;10.20;10.00;;;5.60;99.90;;;;;;5077486;28;20475;-70
2023/12/06 11:02:25;;;;;;;10.00;9.80;;;5.60;99.90;;;;;;5078456;28;20495;-70
2023/12/06 11:04:57;;;;;;;10.03;9.83;;;5.70;99.90;;;;;;5077468;28;20465;-71
2023/12/06 11:07:39;;;;;;;10.40;10.20;;;5.80;99.90;;;;;;5076150;28;20964;-71
2023/12/06 11:10:18;;;;;;;10.20;10.00;;;5.90;99.90;;;;;;5072855;28;20558;-72
2023/12/06 11:12:58;;;;;;;10.17;9.97;;;6.10;99.90;;;;;;5077413;28;20463;-72
2023/12/06 11:15:39;;;;;;;9.70;9.50;;;6.20;99.90;;;;;;5079561;28;20557;-71
2023/12/06 11:18:13;;;;;;;10.00;9.80;;;6.20;99.90;;;;;;5074891;28;20489;-71
2023/12/06 11:20:40;;;;;;;10.40;10.20;;;6.10;99.90;;;;;;5075975;28;20875;-71
2023/12/06 11:23:08;;;;;;;10.40;10.20;;;6.00;99.90;;;;;;5076256;28;20542;-71
2023/12/06 11:25:42;;;;;;;10.87;10.57;;;6.00;99.90;;;;;;5070131;28;20553;-71
2023/12/06 11:28:12;;;;;;;11.70;11.40;;;6.10;99.90;;;;;;5076140;28;20486;-70
2023/12/06 11:30:47;;;;;;;11.03;10.73;;;6.10;99.90;;;;;;5075249;28;20487;-71
2023/12/06 11:33:16;;;;;;;10.70;10.40;;;6.20;99.90;;;;;;5075988;28;20563;-71
2023/12/06 11:35:43;;;;;;;11.10;10.80;;;6.70;99.90;;;;;;5075216;28;20471;-70
2023/12/06 11:38:10;;;;;;;10.87;10.57;;;7.10;99.90;;;;;;5076206;28;21180;-70
2023/12/06 11:40:37;;;;;;;11.80;11.50;;;7.60;99.90;;;;;;5075847;28;21046;-71
2023/12/06 11:43:05;;;;;;;12.00;11.70;;;7.60;99.90;;;;;;5073616;28;20466;-70
2023/12/06 11:45:39;;;;;;;12.07;11.77;;;7.50;99.90;;;;;;5078691;28;20969;-70
2023/12/06 11:48:07;;;;;;;12.03;11.73;;;7.60;99.90;;;;;;5072605;28;20467;-71
2023/12/06 11:50:45;;;;;;;12.10;11.80;;;7.70;99.90;;;;;;5076939;28;20838;-71
2023/12/06 11:53:12;;;;;;;12.80;12.40;;;7.90;99.90;;;;;;5076189;28;20470;-69
2023/12/06 11:55:41;;;;;;;12.87;12.47;;;7.40;99.90;;;;;;5075425;28;20764;-69
2023/12/06 11:58:10;;;;;;;13.10;12.70;;;7.30;99.90;;;;;;5077578;28;20566;-69
2023/12/06 12:00:40;;;;;;;13.20;12.80;;;7.20;99.90;;;;;;5078707;28;20470;-69
2023/12/06 12:03:07;;;;;;;12.80;12.40;;;7.30;99.90;;;;;;5076902;28;20833;-69
2023/12/06 12:05:34;;;;;;;13.80;13.40;;;7.60;99.90;;;;;;5074469;28;20475;-70
2023/12/06 12:08:03;;;;;;;12.97;12.57;;;8.10;99.90;;;;;;5075904;28;20466;-70
2023/12/06 12:10:31;;;;;;;13.30;12.90;;;8.20;99.90;;;;;;5072886;28;20491;-69
2023/12/06 12:12:59;;;;;;;13.60;13.20;;;8.20;99.90;;;;;;5076682;28;20458;-70
2023/12/06 12:15:26;;;;;;;13.40;13.00;;;8.10;99.90;;;;;;5077675;28;20464;-70
2023/12/06 12:17:53;;;;;;;13.70;13.30;;;8.10;99.90;;;;;;5074902;28;20867;-70
2023/12/06 12:20:21;;;;;;;13.53;13.13;;;8.20;99.90;;;;;;5076363;28;20463;-70
2023/12/06 12:22:50;;;;;;;14.10;13.60;;;8.40;99.90;;;;;;5077947;28;20954;-70
2023/12/06 12:25:19;;;;;;;14.07;13.57;;;8.40;99.90;;;;;;5074770;28;20497;-70
2023/12/06 12:27:47;;;;;;;13.77;13.37;;;8.00;99.90;;;;;;5072797;28;20557;-69
2023/12/06 12:30:15;;;;;;;14.20;13.70;;;8.10;99.90;;;;;;5075426;28;20558;-69
2023/12/06 12:32:46;;;;;;;14.30;13.80;;;8.00;99.90;;;;;;5074098;28;20528;-70
2023/12/06 12:35:13;;;;;;;14.53;14.03;;;7.80;99.90;;;;;;5077384;28;20464;-69
2023/12/06 12:37:40;;;;;;;14.70;14.20;;;7.60;99.90;;;;;;5074672;28;20455;-70
2023/12/06 12:40:10;;;;;;;14.20;13.70;;;7.50;99.90;;;;;;5071924;28;20470;-69